sensor_id;sensor_type;location;lat;lon;timestamp;temperature;humidity
14101;DHT22;7127;49.372;8.166;2023-07-02T00:01:55;21.80;53.00
14101;DHT22;7127;49.372;8.166;2023-07-02T00:04:22;21.80;53.10
14101;DHT22;7127;49.372;8.166;2023-07-02T00:06:49;21.80;53.00
14101;DHT22;7127;49.372;8.166;2023-07-02T00:09:16;21.80;53.00
14101;DHT22;7127;49.372;8.166;2023-07-02T00:11:44;21.80;52.80
14101;DHT22;7127;49.372;8.166;2023-07-02T00:14:12;21.80;52.80
14101;DHT22;7127;49.372;8.166;2023-07-02T00:16:42;21.80;52.80
14101;DHT22;7127;49.372;8.166;2023-07-02T00:19:10;21.80;52.70
14101;DHT22;7127;49.372;8.166;2023-07-02T00:21:38;21.70;52.60
14101;DHT22;7127;49.372;8.166;2023-07-02T00:24:06;21.70;52.60
14101;DHT22;7127;49.372;8.166;2023-07-02T00:26:35;21.70;52.40
14101;DHT22;7127;49.372;8.166;2023-07-02T00:29:02;21.70;52.40
14101;DHT22;7127;49.372;8.166;2023-07-02T00:31:31;21.70;52.50
14101;DHT22;7127;49.372;8.166;2023-07-02T00:33:59;21.70;52.40
14101;DHT22;7127;49.372;8.166;2023-07-02T00:36:28;21.60;52.30
14101;DHT22;7127;49.372;8.166;2023-07-02T00:38:56;21.60;52.30
14101;DHT22;7127;49.372;8.166;2023-07-02T00:41:23;21.60;52.20
14101;DHT22;7127;49.372;8.166;2023-07-02T00:43:50;21.50;52.10
14101;DHT22;7127;49.372;8.166;2023-07-02T00:46:21;21.40;52.00
14101;DHT22;7127;49.372;8.166;2023-07-02T00:48:49;21.50;52.20
14101;DHT22;7127;49.372;8.166;2023-07-02T00:51:18;21.50;52.30
14101;DHT22;7127;49.372;8.166;2023-07-02T00:53:48;21.40;52.30
14101;DHT22;7127;49.372;8.166;2023-07-02T00:56:16;21.40;52.30
14101;DHT22;7127;49.372;8.166;2023-07-02T00:58:44;21.40;52.40
14101;DHT22;7127;49.372;8.166;2023-07-02T01:01:14;21.40;52.40
14101;DHT22;7127;49.372;8.166;2023-07-02T01:03:50;21.30;52.40
14101;DHT22;7127;49.372;8.166;2023-07-02T01:06:19;21.40;52.50
14101;DHT22;7127;49.372;8.166;2023-07-02T01:08:52;21.30;52.40
14101;DHT22;7127;49.372;8.166;2023-07-02T01:11:22;21.30;52.50
14101;DHT22;7127;49.372;8.166;2023-07-02T01:13:51;21.40;52.60
14101;DHT22;7127;49.372;8.166;2023-07-02T01:16:19;21.40;52.70
14101;DHT22;7127;49.372;8.166;2023-07-02T01:18:48;21.40;52.70
14101;DHT22;7127;49.372;8.166;2023-07-02T01:21:18;21.40;52.60
14101;DHT22;7127;49.372;8.166;2023-07-02T01:23:45;21.30;53.10
14101;DHT22;7127;49.372;8.166;2023-07-02T01:26:13;21.40;52.50
14101;DHT22;7127;49.372;8.166;2023-07-02T01:28:41;21.40;52.50
14101;DHT22;7127;49.372;8.166;2023-07-02T01:31:08;21.40;52.50
14101;DHT22;7127;49.372;8.166;2023-07-02T01:33:35;21.50;52.70
14101;DHT22;7127;49.372;8.166;2023-07-02T01:36:02;21.50;52.70
14101;DHT22;7127;49.372;8.166;2023-07-02T01:38:30;21.50;52.70
14101;DHT22;7127;49.372;8.166;2023-07-02T01:40:57;21.50;52.60
14101;DHT22;7127;49.372;8.166;2023-07-02T01:43:24;21.60;52.70
14101;DHT22;7127;49.372;8.166;2023-07-02T01:45:51;21.50;52.50
14101;DHT22;7127;49.372;8.166;2023-07-02T01:48:18;21.60;52.50
14101;DHT22;7127;49.372;8.166;2023-07-02T01:50:44;21.60;52.50
14101;DHT22;7127;49.372;8.166;2023-07-02T01:53:11;21.70;52.60
14101;DHT22;7127;49.372;8.166;2023-07-02T01:55:39;21.60;52.50
14101;DHT22;7127;49.372;8.166;2023-07-02T01:58:06;21.70;52.50
14101;DHT22;7127;49.372;8.166;2023-07-02T02:00:33;21.70;52.40
14101;DHT22;7127;49.372;8.166;2023-07-02T02:03:00;21.70;52.30
14101;DHT22;7127;49.372;8.166;2023-07-02T02:05:27;21.70;52.30
14101;DHT22;7127;49.372;8.166;2023-07-02T02:07:54;21.70;52.30
14101;DHT22;7127;49.372;8.166;2023-07-02T02:10:21;21.70;52.20
14101;DHT22;7127;49.372;8.166;2023-07-02T02:12:49;21.70;52.10
14101;DHT22;7127;49.372;8.166;2023-07-02T02:15:16;21.70;52.10
14101;DHT22;7127;49.372;8.166;2023-07-02T02:17:43;21.60;52.00
14101;DHT22;7127;49.372;8.166;2023-07-02T02:20:11;21.60;52.10
14101;DHT22;7127;49.372;8.166;2023-07-02T02:22:38;21.50;52.10
14101;DHT22;7127;49.372;8.166;2023-07-02T02:25:05;21.50;52.10
14101;DHT22;7127;49.372;8.166;2023-07-02T02:27:32;21.50;52.20
14101;DHT22;7127;49.372;8.166;2023-07-02T02:30:00;21.40;52.10
14101;DHT22;7127;49.372;8.166;2023-07-02T02:32:27;21.50;52.80
14101;DHT22;7127;49.372;8.166;2023-07-02T02:34:54;21.40;52.10
14101;DHT22;7127;49.372;8.166;2023-07-02T02:37:21;21.20;51.90
14101;DHT22;7127;49.372;8.166;2023-07-02T02:39:49;21.30;52.00
14101;DHT22;7127;49.372;8.166;2023-07-02T02:42:16;21.30;52.00
14101;DHT22;7127;49.372;8.166;2023-07-02T02:44:43;21.30;51.90
14101;DHT22;7127;49.372;8.166;2023-07-02T02:47:11;21.10;51.80
14101;DHT22;7127;49.372;8.166;2023-07-02T02:49:38;21.20;51.90
14101;DHT22;7127;49.372;8.166;2023-07-02T02:52:06;21.20;51.90
14101;DHT22;7127;49.372;8.166;2023-07-02T02:54:33;21.20;52.00
14101;DHT22;7127;49.372;8.166;2023-07-02T02:57:00;21.10;51.90
14101;DHT22;7127;49.372;8.166;2023-07-02T02:59:27;21.10;51.90
14101;DHT22;7127;49.372;8.166;2023-07-02T03:01:54;21.10;52.50
14101;DHT22;7127;49.372;8.166;2023-07-02T03:04:22;21.10;52.00
14101;DHT22;7127;49.372;8.166;2023-07-02T03:06:50;21.00;51.90
14101;DHT22;7127;49.372;8.166;2023-07-02T03:09:18;21.00;51.90
14101;DHT22;7127;49.372;8.166;2023-07-02T03:11:46;21.00;52.00
14101;DHT22;7127;49.372;8.166;2023-07-02T03:14:13;21.00;52.00
14101;DHT22;7127;49.372;8.166;2023-07-02T03:16:40;20.90;52.00
14101;DHT22;7127;49.372;8.166;2023-07-02T03:19:07;20.90;52.10
14101;DHT22;7127;49.372;8.166;2023-07-02T03:21:35;20.90;52.20
14101;DHT22;7127;49.372;8.166;2023-07-02T03:24:02;20.90;52.20
14101;DHT22;7127;49.372;8.166;2023-07-02T03:26:29;20.90;52.20
14101;DHT22;7127;49.372;8.166;2023-07-02T03:28:56;20.80;52.20
14101;DHT22;7127;49.372;8.166;2023-07-02T03:31:22;20.80;52.80
14101;DHT22;7127;49.372;8.166;2023-07-02T03:33:49;20.80;52.20
14101;DHT22;7127;49.372;8.166;2023-07-02T03:36:16;20.80;52.20
14101;DHT22;7127;49.372;8.166;2023-07-02T03:38:44;20.70;52.20
14101;DHT22;7127;49.372;8.166;2023-07-02T03:41:11;20.70;52.20
14101;DHT22;7127;49.372;8.166;2023-07-02T03:43:38;20.70;52.20
14101;DHT22;7127;49.372;8.166;2023-07-02T03:46:05;20.70;52.20
14101;DHT22;7127;49.372;8.166;2023-07-02T03:48:31;20.70;52.20
14101;DHT22;7127;49.372;8.166;2023-07-02T03:50:58;20.70;52.20
14101;DHT22;7127;49.372;8.166;2023-07-02T03:53:25;20.70;52.30
14101;DHT22;7127;49.372;8.166;2023-07-02T03:55:53;20.60;52.30
14101;DHT22;7127;49.372;8.166;2023-07-02T03:58:20;20.60;52.30
14101;DHT22;7127;49.372;8.166;2023-07-02T04:00:47;20.50;52.40
14101;DHT22;7127;49.372;8.166;2023-07-02T04:03:15;20.60;52.50
14101;DHT22;7127;49.372;8.166;2023-07-02T04:05:42;20.60;52.50
14101;DHT22;7127;49.372;8.166;2023-07-02T04:08:09;20.60;52.40
14101;DHT22;7127;49.372;8.166;2023-07-02T04:10:36;20.60;52.40
14101;DHT22;7127;49.372;8.166;2023-07-02T04:13:04;20.60;53.10
14101;DHT22;7127;49.372;8.166;2023-07-02T04:15:31;20.70;52.50
14101;DHT22;7127;49.372;8.166;2023-07-02T04:17:58;20.70;52.50
14101;DHT22;7127;49.372;8.166;2023-07-02T04:20:24;20.80;52.60
14101;DHT22;7127;49.372;8.166;2023-07-02T04:22:54;20.80;52.60
14101;DHT22;7127;49.372;8.166;2023-07-02T04:25:21;20.80;53.20
14101;DHT22;7127;49.372;8.166;2023-07-02T04:27:47;20.80;52.40
14101;DHT22;7127;49.372;8.166;2023-07-02T04:30:16;20.80;52.40
14101;DHT22;7127;49.372;8.166;2023-07-02T04:32:43;20.90;52.40
14101;DHT22;7127;49.372;8.166;2023-07-02T04:35:10;20.90;52.90
14101;DHT22;7127;49.372;8.166;2023-07-02T04:37:37;20.90;52.20
14101;DHT22;7127;49.372;8.166;2023-07-02T04:40:05;20.90;52.20
14101;DHT22;7127;49.372;8.166;2023-07-02T04:42:35;20.90;52.00
14101;DHT22;7127;49.372;8.166;2023-07-02T04:45:03;20.90;52.10
14101;DHT22;7127;49.372;8.166;2023-07-02T04:47:32;20.90;52.00
14101;DHT22;7127;49.372;8.166;2023-07-02T04:49:59;20.90;52.00
14101;DHT22;7127;49.372;8.166;2023-07-02T04:52:26;20.90;52.00
14101;DHT22;7127;49.372;8.166;2023-07-02T04:54:52;21.00;52.10
14101;DHT22;7127;49.372;8.166;2023-07-02T04:57:20;21.10;52.30
14101;DHT22;7127;49.372;8.166;2023-07-02T04:59:46;20.90;52.00
14101;DHT22;7127;49.372;8.166;2023-07-02T05:02:13;21.00;52.00
14101;DHT22;7127;49.372;8.166;2023-07-02T05:04:42;21.00;52.00
14101;DHT22;7127;49.372;8.166;2023-07-02T05:07:09;21.00;51.90
14101;DHT22;7127;49.372;8.166;2023-07-02T05:09:36;21.00;51.90
14101;DHT22;7127;49.372;8.166;2023-07-02T05:12:03;21.20;52.10
14101;DHT22;7127;49.372;8.166;2023-07-02T05:14:30;21.00;51.90
14101;DHT22;7127;49.372;8.166;2023-07-02T05:16:57;21.00;51.90
14101;DHT22;7127;49.372;8.166;2023-07-02T05:19:23;21.10;52.00
14101;DHT22;7127;49.372;8.166;2023-07-02T05:21:52;21.10;52.10
14101;DHT22;7127;49.372;8.166;2023-07-02T05:24:19;21.20;52.10
14101;DHT22;7127;49.372;8.166;2023-07-02T05:26:45;21.10;52.00
14101;DHT22;7127;49.372;8.166;2023-07-02T05:29:13;21.10;52.00
14101;DHT22;7127;49.372;8.166;2023-07-02T05:31:42;21.20;52.60
14101;DHT22;7127;49.372;8.166;2023-07-02T05:34:08;21.20;52.50
14101;DHT22;7127;49.372;8.166;2023-07-02T05:36:35;21.30;51.90
14101;DHT22;7127;49.372;8.166;2023-07-02T05:39:03;21.30;51.90
14101;DHT22;7127;49.372;8.166;2023-07-02T05:41:30;21.30;51.80
14101;DHT22;7127;49.372;8.166;2023-07-02T05:43:57;21.30;52.30
14101;DHT22;7127;49.372;8.166;2023-07-02T05:46:24;21.40;52.20
14101;DHT22;7127;49.372;8.166;2023-07-02T05:48:51;21.40;51.60
14101;DHT22;7127;49.372;8.166;2023-07-02T05:51:20;21.40;51.60
14101;DHT22;7127;49.372;8.166;2023-07-02T05:53:49;21.50;51.70
14101;DHT22;7127;49.372;8.166;2023-07-02T05:56:17;21.50;51.60
14101;DHT22;7127;49.372;8.166;2023-07-02T05:58:45;21.50;51.70
14101;DHT22;7127;49.372;8.166;2023-07-02T06:01:12;21.50;51.70
14101;DHT22;7127;49.372;8.166;2023-07-02T06:03:39;21.50;51.60
14101;DHT22;7127;49.372;8.166;2023-07-02T06:06:07;21.60;51.60
14101;DHT22;7127;49.372;8.166;2023-07-02T06:08:34;21.50;51.60
14101;DHT22;7127;49.372;8.166;2023-07-02T06:11:01;21.50;51.60
14101;DHT22;7127;49.372;8.166;2023-07-02T06:13:29;21.60;51.70
14101;DHT22;7127;49.372;8.166;2023-07-02T06:15:56;21.50;51.60
14101;DHT22;7127;49.372;8.166;2023-07-02T06:18:23;21.60;51.60
14101;DHT22;7127;49.372;8.166;2023-07-02T06:20:50;21.70;51.70
14101;DHT22;7127;49.372;8.166;2023-07-02T06:23:17;21.70;51.60
14101;DHT22;7127;49.372;8.166;2023-07-02T06:25:44;21.70;51.50
14101;DHT22;7127;49.372;8.166;2023-07-02T06:28:11;21.80;51.40
14101;DHT22;7127;49.372;8.166;2023-07-02T06:30:39;21.80;51.30
14101;DHT22;7127;49.372;8.166;2023-07-02T06:33:06;21.90;51.30
14101;DHT22;7127;49.372;8.166;2023-07-02T06:35:32;21.90;51.30
14101;DHT22;7127;49.372;8.166;2023-07-02T06:37:59;22.00;51.30
14101;DHT22;7127;49.372;8.166;2023-07-02T06:40:26;22.00;51.20
14101;DHT22;7127;49.372;8.166;2023-07-02T06:42:53;22.10;51.30
14101;DHT22;7127;49.372;8.166;2023-07-02T06:45:20;22.10;51.20
14101;DHT22;7127;49.372;8.166;2023-07-02T06:47:49;22.20;51.10
14101;DHT22;7127;49.372;8.166;2023-07-02T06:50:16;22.30;50.80
14101;DHT22;7127;49.372;8.166;2023-07-02T06:52:43;22.30;50.80
14101;DHT22;7127;49.372;8.166;2023-07-02T06:55:09;22.30;50.70
14101;DHT22;7127;49.372;8.166;2023-07-02T06:57:42;22.40;50.70
14101;DHT22;7127;49.372;8.166;2023-07-02T07:00:09;22.40;50.40
14101;DHT22;7127;49.372;8.166;2023-07-02T07:02:36;22.50;50.50
14101;DHT22;7127;49.372;8.166;2023-07-02T07:05:05;22.60;50.50
14101;DHT22;7127;49.372;8.166;2023-07-02T07:07:32;22.50;50.20
14101;DHT22;7127;49.372;8.166;2023-07-02T07:09:59;22.60;50.00
14101;DHT22;7127;49.372;8.166;2023-07-02T07:12:27;22.60;49.90
14101;DHT22;7127;49.372;8.166;2023-07-02T07:14:53;22.70;49.40
14101;DHT22;7127;49.372;8.166;2023-07-02T07:17:20;22.70;49.60
14101;DHT22;7127;49.372;8.166;2023-07-02T07:19:47;22.80;49.60
14101;DHT22;7127;49.372;8.166;2023-07-02T07:22:15;22.80;49.60
14101;DHT22;7127;49.372;8.166;2023-07-02T07:24:42;22.90;49.90
14101;DHT22;7127;49.372;8.166;2023-07-02T07:27:09;22.90;49.30
14101;DHT22;7127;49.372;8.166;2023-07-02T07:29:36;22.90;49.30
14101;DHT22;7127;49.372;8.166;2023-07-02T07:32:03;23.00;49.50
14101;DHT22;7127;49.372;8.166;2023-07-02T07:34:30;23.10;49.60
14101;DHT22;7127;49.372;8.166;2023-07-02T07:36:57;23.10;49.40
14101;DHT22;7127;49.372;8.166;2023-07-02T07:39:25;23.20;49.30
14101;DHT22;7127;49.372;8.166;2023-07-02T07:41:52;23.20;49.10
14101;DHT22;7127;49.372;8.166;2023-07-02T07:44:19;23.20;49.10
14101;DHT22;7127;49.372;8.166;2023-07-02T07:46:46;23.40;49.20
14101;DHT22;7127;49.372;8.166;2023-07-02T07:49:14;23.40;48.90
14101;DHT22;7127;49.372;8.166;2023-07-02T07:51:41;23.40;48.30
14101;DHT22;7127;49.372;8.166;2023-07-02T07:54:08;23.50;48.30
14101;DHT22;7127;49.372;8.166;2023-07-02T07:56:36;23.60;48.10
14101;DHT22;7127;49.372;8.166;2023-07-02T07:59:03;23.50;47.70
14101;DHT22;7127;49.372;8.166;2023-07-02T08:01:30;23.50;47.90
14101;DHT22;7127;49.372;8.166;2023-07-02T08:03:57;23.60;47.90
14101;DHT22;7127;49.372;8.166;2023-07-02T08:06:24;23.60;47.80
14101;DHT22;7127;49.372;8.166;2023-07-02T08:08:51;23.70;48.00
14101;DHT22;7127;49.372;8.166;2023-07-02T08:11:17;23.70;47.90
14101;DHT22;7127;49.372;8.166;2023-07-02T08:13:46;23.70;47.20
14101;DHT22;7127;49.372;8.166;2023-07-02T08:16:13;23.80;47.30
14101;DHT22;7127;49.372;8.166;2023-07-02T08:18:40;23.90;47.20
14101;DHT22;7127;49.372;8.166;2023-07-02T08:21:07;23.90;47.20
14101;DHT22;7127;49.372;8.166;2023-07-02T08:23:34;23.90;47.20
14101;DHT22;7127;49.372;8.166;2023-07-02T08:26:01;24.00;47.10
14101;DHT22;7127;49.372;8.166;2023-07-02T08:28:29;24.10;47.20
14101;DHT22;7127;49.372;8.166;2023-07-02T08:30:57;24.10;46.90
14101;DHT22;7127;49.372;8.166;2023-07-02T08:33:24;24.30;46.90
14101;DHT22;7127;49.372;8.166;2023-07-02T08:35:51;24.30;46.80
14101;DHT22;7127;49.372;8.166;2023-07-02T08:38:18;24.40;46.10
14101;DHT22;7127;49.372;8.166;2023-07-02T08:40:45;24.40;46.30
14101;DHT22;7127;49.372;8.166;2023-07-02T08:43:12;24.50;46.30
14101;DHT22;7127;49.372;8.166;2023-07-02T08:45:40;24.60;46.90
14101;DHT22;7127;49.372;8.166;2023-07-02T08:48:10;24.60;45.80
14101;DHT22;7127;49.372;8.166;2023-07-02T08:50:37;24.70;45.60
14101;DHT22;7127;49.372;8.166;2023-07-02T08:53:04;24.70;45.50
14101;DHT22;7127;49.372;8.166;2023-07-02T08:55:31;24.80;46.10
14101;DHT22;7127;49.372;8.166;2023-07-02T08:57:59;24.90;45.30
14101;DHT22;7127;49.372;8.166;2023-07-02T09:00:26;24.90;43.80
14101;DHT22;7127;49.372;8.166;2023-07-02T09:02:53;24.80;44.20
14101;DHT22;7127;49.372;8.166;2023-07-02T09:05:21;24.90;44.00
14101;DHT22;7127;49.372;8.166;2023-07-02T09:07:49;24.90;44.50
14101;DHT22;7127;49.372;8.166;2023-07-02T09:10:28;25.10;44.90
14101;DHT22;7127;49.372;8.166;2023-07-02T09:13:05;25.00;44.60
14101;DHT22;7127;49.372;8.166;2023-07-02T09:15:36;25.20;44.70
14101;DHT22;7127;49.372;8.166;2023-07-02T09:18:15;25.30;44.50
14101;DHT22;7127;49.372;8.166;2023-07-02T09:20:43;25.50;43.20
14101;DHT22;7127;49.372;8.166;2023-07-02T09:23:10;25.50;43.40
14101;DHT22;7127;49.372;8.166;2023-07-02T09:25:38;25.60;43.50
14101;DHT22;7127;49.372;8.166;2023-07-02T09:28:17;25.70;43.40
14101;DHT22;7127;49.372;8.166;2023-07-02T09:30:52;25.70;42.90
14101;DHT22;7127;49.372;8.166;2023-07-02T09:33:19;25.80;42.40
14101;DHT22;7127;49.372;8.166;2023-07-02T09:35:47;25.70;42.50
14101;DHT22;7127;49.372;8.166;2023-07-02T09:38:17;25.70;42.20
14101;DHT22;7127;49.372;8.166;2023-07-02T09:40:46;25.80;42.10
14101;DHT22;7127;49.372;8.166;2023-07-02T09:43:14;25.80;41.80
14101;DHT22;7127;49.372;8.166;2023-07-02T09:45:52;25.70;41.00
14101;DHT22;7127;49.372;8.166;2023-07-02T09:48:28;25.70;40.60
14101;DHT22;7127;49.372;8.166;2023-07-02T09:50:58;25.60;40.90
14101;DHT22;7127;49.372;8.166;2023-07-02T09:53:27;25.60;41.20
14101;DHT22;7127;49.372;8.166;2023-07-02T09:55:55;25.60;41.40
14101;DHT22;7127;49.372;8.166;2023-07-02T09:58:22;25.40;41.30
14101;DHT22;7127;49.372;8.166;2023-07-02T10:00:49;25.60;41.50
14101;DHT22;7127;49.372;8.166;2023-07-02T10:03:17;25.60;41.30
14101;DHT22;7127;49.372;8.166;2023-07-02T10:05:43;25.60;40.90
14101;DHT22;7127;49.372;8.166;2023-07-02T10:08:15;25.60;40.70
14101;DHT22;7127;49.372;8.166;2023-07-02T10:10:43;25.60;40.60
14101;DHT22;7127;49.372;8.166;2023-07-02T10:13:10;25.60;40.90
14101;DHT22;7127;49.372;8.166;2023-07-02T10:15:37;25.50;41.20
14101;DHT22;7127;49.372;8.166;2023-07-02T10:18:05;25.70;41.50
14101;DHT22;7127;49.372;8.166;2023-07-02T10:20:34;25.50;41.30
14101;DHT22;7127;49.372;8.166;2023-07-02T10:23:02;25.70;41.40
14101;DHT22;7127;49.372;8.166;2023-07-02T10:25:32;25.80;41.30
14101;DHT22;7127;49.372;8.166;2023-07-02T10:28:01;25.90;41.30
14101;DHT22;7127;49.372;8.166;2023-07-02T10:30:32;26.00;40.90
14101;DHT22;7127;49.372;8.166;2023-07-02T10:33:09;26.10;41.00
14101;DHT22;7127;49.372;8.166;2023-07-02T10:35:37;26.20;41.30
14101;DHT22;7127;49.372;8.166;2023-07-02T10:38:04;26.20;41.30
14101;DHT22;7127;49.372;8.166;2023-07-02T10:40:33;26.30;40.30
14101;DHT22;7127;49.372;8.166;2023-07-02T10:43:00;26.30;39.90
14101;DHT22;7127;49.372;8.166;2023-07-02T10:45:35;26.50;40.00
14101;DHT22;7127;49.372;8.166;2023-07-02T10:48:03;26.40;39.30
14101;DHT22;7127;49.372;8.166;2023-07-02T10:50:31;26.40;39.60
14101;DHT22;7127;49.372;8.166;2023-07-02T10:52:58;26.40;39.50
14101;DHT22;7127;49.372;8.166;2023-07-02T10:55:26;26.50;38.80
14101;DHT22;7127;49.372;8.166;2023-07-02T10:58:04;26.40;38.80
14101;DHT22;7127;49.372;8.166;2023-07-02T11:00:31;26.40;39.00
14101;DHT22;7127;49.372;8.166;2023-07-02T11:02:59;26.40;39.20
14101;DHT22;7127;49.372;8.166;2023-07-02T11:05:26;26.50;38.80
14101;DHT22;7127;49.372;8.166;2023-07-02T11:07:52;26.50;38.90
14101;DHT22;7127;49.372;8.166;2023-07-02T11:10:23;26.60;39.20
14101;DHT22;7127;49.372;8.166;2023-07-02T11:12:50;26.60;38.80
14101;DHT22;7127;49.372;8.166;2023-07-02T11:15:18;26.60;38.40
14101;DHT22;7127;49.372;8.166;2023-07-02T11:17:46;26.70;38.50
14101;DHT22;7127;49.372;8.166;2023-07-02T11:20:14;26.80;38.50
14101;DHT22;7127;49.372;8.166;2023-07-02T11:22:41;26.80;38.50
14101;DHT22;7127;49.372;8.166;2023-07-02T11:25:16;26.90;38.50
14101;DHT22;7127;49.372;8.166;2023-07-02T11:27:43;26.90;37.90
14101;DHT22;7127;49.372;8.166;2023-07-02T11:30:12;27.00;38.20
14101;DHT22;7127;49.372;8.166;2023-07-02T11:32:50;27.00;37.50
14101;DHT22;7127;49.372;8.166;2023-07-02T11:35:17;27.10;37.60
14101;DHT22;7127;49.372;8.166;2023-07-02T11:37:45;27.10;37.90
14101;DHT22;7127;49.372;8.166;2023-07-02T11:40:14;27.20;37.70
14101;DHT22;7127;49.372;8.166;2023-07-02T11:42:41;27.10;37.00
14101;DHT22;7127;49.372;8.166;2023-07-02T11:45:09;27.20;37.20
14101;DHT22;7127;49.372;8.166;2023-07-02T11:47:38;27.10;36.80
14101;DHT22;7127;49.372;8.166;2023-07-02T11:50:07;27.20;36.20
14101;DHT22;7127;49.372;8.166;2023-07-02T11:52:35;27.10;35.90
14101;DHT22;7127;49.372;8.166;2023-07-02T11:55:02;27.10;36.40
14101;DHT22;7127;49.372;8.166;2023-07-02T11:57:28;27.10;36.80
14101;DHT22;7127;49.372;8.166;2023-07-02T11:59:55;27.10;36.90
14101;DHT22;7127;49.372;8.166;2023-07-02T12:02:22;27.10;36.90
14101;DHT22;7127;49.372;8.166;2023-07-02T12:04:49;27.20;36.70
14101;DHT22;7127;49.372;8.166;2023-07-02T12:07:17;27.30;36.60
14101;DHT22;7127;49.372;8.166;2023-07-02T12:09:44;27.40;36.80
14101;DHT22;7127;49.372;8.166;2023-07-02T12:12:11;27.40;36.50
14101;DHT22;7127;49.372;8.166;2023-07-02T12:14:37;27.50;36.40
14101;DHT22;7127;49.372;8.166;2023-07-02T12:17:08;27.50;36.30
14101;DHT22;7127;49.372;8.166;2023-07-02T12:19:38;27.60;36.10
14101;DHT22;7127;49.372;8.166;2023-07-02T12:22:04;27.50;35.70
14101;DHT22;7127;49.372;8.166;2023-07-02T12:24:33;27.60;35.90
14101;DHT22;7127;49.372;8.166;2023-07-02T12:26:59;27.40;35.60
14101;DHT22;7127;49.372;8.166;2023-07-02T12:29:26;27.50;35.80
14101;DHT22;7127;49.372;8.166;2023-07-02T12:31:53;27.50;35.70
14101;DHT22;7127;49.372;8.166;2023-07-02T12:34:20;27.50;35.80
14101;DHT22;7127;49.372;8.166;2023-07-02T12:36:46;27.50;35.50
14101;DHT22;7127;49.372;8.166;2023-07-02T12:39:13;27.50;35.50
14101;DHT22;7127;49.372;8.166;2023-07-02T12:41:42;27.50;35.50
14101;DHT22;7127;49.372;8.166;2023-07-02T12:44:08;27.60;35.60
14101;DHT22;7127;49.372;8.166;2023-07-02T12:46:35;27.50;35.40
14101;DHT22;7127;49.372;8.166;2023-07-02T12:49:02;27.50;35.60
14101;DHT22;7127;49.372;8.166;2023-07-02T12:51:29;27.50;35.70
14101;DHT22;7127;49.372;8.166;2023-07-02T12:53:55;27.70;36.00
14101;DHT22;7127;49.372;8.166;2023-07-02T12:56:22;27.80;36.20
14101;DHT22;7127;49.372;8.166;2023-07-02T12:58:50;27.80;35.80
14101;DHT22;7127;49.372;8.166;2023-07-02T13:01:17;28.00;36.10
14101;DHT22;7127;49.372;8.166;2023-07-02T13:03:47;28.00;35.50
14101;DHT22;7127;49.372;8.166;2023-07-02T13:06:14;28.10;35.30
14101;DHT22;7127;49.372;8.166;2023-07-02T13:08:41;28.10;35.70
14101;DHT22;7127;49.372;8.166;2023-07-02T13:11:08;28.20;35.50
14101;DHT22;7127;49.372;8.166;2023-07-02T13:13:35;28.20;35.50
14101;DHT22;7127;49.372;8.166;2023-07-02T13:16:04;28.30;35.70
14101;DHT22;7127;49.372;8.166;2023-07-02T13:18:31;28.30;35.30
14101;DHT22;7127;49.372;8.166;2023-07-02T13:20:58;28.50;35.50
14101;DHT22;7127;49.372;8.166;2023-07-02T13:23:24;28.50;35.50
14101;DHT22;7127;49.372;8.166;2023-07-02T13:25:51;28.40;35.40
14101;DHT22;7127;49.372;8.166;2023-07-02T13:28:18;28.60;35.50
14101;DHT22;7127;49.372;8.166;2023-07-02T13:30:46;28.70;35.60
14101;DHT22;7127;49.372;8.166;2023-07-02T13:33:14;28.70;35.10
14101;DHT22;7127;49.372;8.166;2023-07-02T13:35:41;28.80;34.50
14101;DHT22;7127;49.372;8.166;2023-07-02T13:38:09;28.80;34.00
14101;DHT22;7127;49.372;8.166;2023-07-02T13:40:36;28.90;34.60
14101;DHT22;7127;49.372;8.166;2023-07-02T13:43:02;28.80;34.00
14101;DHT22;7127;49.372;8.166;2023-07-02T13:45:29;28.80;34.00
14101;DHT22;7127;49.372;8.166;2023-07-02T13:47:56;28.90;34.20
14101;DHT22;7127;49.372;8.166;2023-07-02T13:50:24;28.80;34.10
14101;DHT22;7127;49.372;8.166;2023-07-02T13:52:51;28.90;34.10
14101;DHT22;7127;49.372;8.166;2023-07-02T13:55:18;29.10;34.40
14101;DHT22;7127;49.372;8.166;2023-07-02T13:57:46;29.00;34.30
14101;DHT22;7127;49.372;8.166;2023-07-02T14:00:15;29.00;34.30
14101;DHT22;7127;49.372;8.166;2023-07-02T14:02:42;29.00;33.70
14101;DHT22;7127;49.372;8.166;2023-07-02T14:05:09;29.10;33.00
14101;DHT22;7127;49.372;8.166;2023-07-02T14:07:35;29.10;33.00
14101;DHT22;7127;49.372;8.166;2023-07-02T14:10:03;29.10;33.20
14101;DHT22;7127;49.372;8.166;2023-07-02T14:12:30;29.10;33.30
14101;DHT22;7127;49.372;8.166;2023-07-02T14:14:57;29.20;33.10
14101;DHT22;7127;49.372;8.166;2023-07-02T14:17:25;29.20;33.40
14101;DHT22;7127;49.372;8.166;2023-07-02T14:19:52;29.20;33.10
14101;DHT22;7127;49.372;8.166;2023-07-02T14:22:20;29.10;32.70
14101;DHT22;7127;49.372;8.166;2023-07-02T14:24:47;29.30;32.70
14101;DHT22;7127;49.372;8.166;2023-07-02T14:27:13;29.30;32.80
14101;DHT22;7127;49.372;8.166;2023-07-02T14:29:40;29.20;32.20
14101;DHT22;7127;49.372;8.166;2023-07-02T14:32:07;29.30;33.40
14101;DHT22;7127;49.372;8.166;2023-07-02T14:34:36;29.20;32.30
14101;DHT22;7127;49.372;8.166;2023-07-02T14:37:03;29.30;32.50
14101;DHT22;7127;49.372;8.166;2023-07-02T14:39:30;29.30;32.10
14101;DHT22;7127;49.372;8.166;2023-07-02T14:41:57;29.30;32.10
14101;DHT22;7127;49.372;8.166;2023-07-02T14:44:24;29.20;32.00
14101;DHT22;7127;49.372;8.166;2023-07-02T14:46:51;29.30;32.00
14101;DHT22;7127;49.372;8.166;2023-07-02T14:49:19;29.20;31.90
14101;DHT22;7127;49.372;8.166;2023-07-02T14:51:48;29.20;31.60
14101;DHT22;7127;49.372;8.166;2023-07-02T14:54:15;29.20;31.70
14101;DHT22;7127;49.372;8.166;2023-07-02T14:56:41;29.10;31.90
14101;DHT22;7127;49.372;8.166;2023-07-02T14:59:08;29.10;32.10
14101;DHT22;7127;49.372;8.166;2023-07-02T15:01:35;29.10;31.90
14101;DHT22;7127;49.372;8.166;2023-07-02T15:04:02;29.10;31.70
14101;DHT22;7127;49.372;8.166;2023-07-02T15:06:29;29.10;31.70
14101;DHT22;7127;49.372;8.166;2023-07-02T15:08:57;29.20;31.90
14101;DHT22;7127;49.372;8.166;2023-07-02T15:11:24;29.20;32.00
14101;DHT22;7127;49.372;8.166;2023-07-02T15:13:50;29.20;32.30
14101;DHT22;7127;49.372;8.166;2023-07-02T15:16:17;29.20;32.10
14101;DHT22;7127;49.372;8.166;2023-07-02T15:18:46;29.20;31.50
14101;DHT22;7127;49.372;8.166;2023-07-02T15:21:13;29.20;31.60
14101;DHT22;7127;49.372;8.166;2023-07-02T15:23:41;29.30;31.80
14101;DHT22;7127;49.372;8.166;2023-07-02T15:26:09;29.40;31.60
14101;DHT22;7127;49.372;8.166;2023-07-02T15:28:36;29.30;31.30
14101;DHT22;7127;49.372;8.166;2023-07-02T15:31:07;29.30;31.50
14101;DHT22;7127;49.372;8.166;2023-07-02T15:33:35;29.30;31.00
14101;DHT22;7127;49.372;8.166;2023-07-02T15:36:04;29.10;30.60
14101;DHT22;7127;49.372;8.166;2023-07-02T15:38:31;29.20;30.90
14101;DHT22;7127;49.372;8.166;2023-07-02T15:41:06;29.20;31.30
14101;DHT22;7127;49.372;8.166;2023-07-02T15:43:34;29.20;31.40
14101;DHT22;7127;49.372;8.166;2023-07-02T15:46:01;29.20;31.60
14101;DHT22;7127;49.372;8.166;2023-07-02T15:48:28;29.30;31.60